createdAt,value
2022-10-29T00:01:23.702Z,7.65
2022-10-29T00:06:23.966Z,9.32
2022-10-29T00:11:23.654Z,8.45
2022-10-29T00:16:26.173Z,12.15
2022-10-29T00:21:27.866Z,12.48
2022-10-29T00:26:30.482Z,10.93
2022-10-29T00:31:29.467Z,13.68
2022-10-29T00:36:33.422Z,13.93
2022-10-29T00:41:32.317Z,15.75
2022-10-29T00:53:43.203Z,13.52
2022-10-29T00:58:42.375Z,11.25
2022-10-29T01:03:41.694Z,12.85
2022-10-29T01:08:42.168Z,11.13
2022-10-29T01:13:58.905Z,10.90
2022-10-29T01:19:07.004Z,9.00
2022-10-29T01:24:56.059Z,10.45
2022-10-29T01:30:07.207Z,9.77
2022-10-29T01:35:16.488Z,10.95
2022-10-29T01:40:22.859Z,7.65
2022-10-29T01:45:28.249Z,10.27
2022-10-29T01:50:29.553Z,8.02
2022-10-29T01:55:34.047Z,10.77
2022-10-29T02:00:39.191Z,10.15
2022-10-29T02:05:49.940Z,9.48
2022-10-29T02:10:55.928Z,10.27
2022-10-29T02:15:57.803Z,10.20
2022-10-29T02:20:57.996Z,8.45
2022-10-29T02:25:57.118Z,9.05
2022-10-29T02:30:55.996Z,9.75
2022-10-29T02:35:55.218Z,11.55
2022-10-29T02:40:55.476Z,10.23
2022-10-29T02:46:12.818Z,7.53
2022-10-29T02:51:12.037Z,7.10
2022-10-29T02:56:12.752Z,7.53
2022-10-29T03:01:11.939Z,9.35
2022-10-29T03:07:01.722Z,10.30
2022-10-29T03:12:05.504Z,8.67
2022-10-29T03:17:06.526Z,7.95
2022-10-29T03:22:05.372Z,9.93
2022-10-29T03:27:05.826Z,11.60
2022-10-29T03:32:04.689Z,9.82
2022-10-29T03:37:03.836Z,10.32
2022-10-29T03:42:04.224Z,9.07
2022-10-29T03:47:06.979Z,14.32
2022-10-29T03:52:06.104Z,14.10
2022-10-29T03:57:05.447Z,13.85
2022-10-29T04:02:07.619Z,19.55
2022-10-29T04:07:06.625Z,50.03
2022-10-29T04:12:06.339Z,17.90
2022-10-29T04:17:06.715Z,14.45
2022-10-29T04:32:47.129Z,44.10
2022-10-29T04:37:46.175Z,27.27
2022-10-29T04:42:45.057Z,18.92
2022-10-29T04:47:45.640Z,12.00
2022-10-29T04:52:44.526Z,9.95
2022-10-29T04:57:43.727Z,14.52
2022-10-29T05:02:42.548Z,19.25
2022-10-29T05:07:42.925Z,21.88
2022-10-29T05:12:42.195Z,17.80
2022-10-29T05:17:41.002Z,16.92
2022-10-29T05:22:39.723Z,12.93
2022-10-29T05:27:39.872Z,13.55
2022-10-29T05:32:41.827Z,11.45
2022-10-29T05:37:44.236Z,11.32
2022-10-29T05:42:47.543Z,13.40
2022-10-29T05:47:50.218Z,12.98
2022-10-29T05:52:57.892Z,11.98
2022-10-29T05:57:59.844Z,12.43
2022-10-29T06:02:59.738Z,12.18
2022-10-29T06:08:01.558Z,14.10
2022-10-29T06:13:04.164Z,11.40
2022-10-29T06:18:03.347Z,11.57
2022-10-29T06:23:02.344Z,13.80
2022-10-29T06:28:04.656Z,16.20
2022-10-29T06:33:05.654Z,18.80
2022-10-29T06:38:10.849Z,18.70
2022-10-29T06:43:13.931Z,16.23
2022-10-29T06:48:14.570Z,11.50
2022-10-29T06:53:16.547Z,14.38
2022-10-29T06:58:18.944Z,18.88
2022-10-29T07:03:20.204Z,18.02
2022-10-29T07:08:19.219Z,18.63
2022-10-29T07:13:19.593Z,12.25
2022-10-29T07:18:18.692Z,12.43
2022-10-29T07:23:17.992Z,18.40
2022-10-29T07:28:21.018Z,20.83
2022-10-29T07:33:20.047Z,20.30
2022-10-29T07:38:19.393Z,19.60
2022-10-29T07:43:21.221Z,17.00
2022-10-29T07:48:23.132Z,12.70
2022-10-29T07:53:21.941Z,11.57
2022-10-29T07:58:22.795Z,9.98
2022-10-29T08:03:21.694Z,7.70
2022-10-29T08:08:22.326Z,9.82
2022-10-29T08:13:22.636Z,9.05
2022-10-29T08:18:21.655Z,10.68
2022-10-29T08:23:22.609Z,10.27
2022-10-29T08:28:25.770Z,6.97
2022-10-29T08:33:25.242Z,10.70
2022-10-29T08:38:24.636Z,7.88
2022-10-29T08:43:48.438Z,8.60
2022-10-29T08:48:52.893Z,8.65
2022-10-29T08:54:24.899Z,8.60
2022-10-29T08:59:18.180Z,11.30
2022-10-29T09:04:25.041Z,9.98
2022-10-29T09:09:32.660Z,8.98
2022-10-29T09:14:50.108Z,12.52
2022-10-29T09:20:16.312Z,10.60
2022-10-29T09:25:20.476Z,8.80
2022-10-29T09:30:23.022Z,8.63
2022-10-29T09:35:24.821Z,6.00
2022-10-29T09:40:33.700Z,8.05
2022-10-29T09:45:46.672Z,9.98
2022-10-29T09:50:53.974Z,10.65
2022-10-29T09:55:54.025Z,8.43
2022-10-29T10:07:01.866Z,9.75
2022-10-29T10:12:00.911Z,10.05
2022-10-29T10:17:02.866Z,11.00
2022-10-29T10:22:03.982Z,18.38
2022-10-29T10:27:03.548Z,8.57
2022-10-29T10:32:17.817Z,9.63
2022-10-29T10:37:20.247Z,12.35
2022-10-29T10:42:23.889Z,6.45
2022-10-29T10:47:28.914Z,8.85
2022-10-29T10:52:32.107Z,11.23
2022-10-29T10:57:36.520Z,6.60
2022-10-29T11:02:49.186Z,6.35
2022-10-29T11:07:56.319Z,8.27
2022-10-29T11:12:57.992Z,7.32
2022-10-29T11:18:04.285Z,13.30
2022-10-29T11:23:22.364Z,10.27
2022-10-29T11:28:27.839Z,9.18
2022-10-29T11:33:37.357Z,5.45
2022-10-29T11:38:46.731Z,6.13
2022-10-29T11:48:57.867Z,4.73
2022-10-29T11:54:02.636Z,9.67
2022-10-29T11:59:07.723Z,9.45
2022-10-29T12:04:24.463Z,3.58
2022-10-29T12:09:43.726Z,5.88
2022-10-29T12:14:49.236Z,6.22
2022-10-29T12:19:57.320Z,1.85
2022-10-29T12:25:21.747Z,2.97
2022-10-29T12:30:23.610Z,3.42
2022-10-29T12:35:30.820Z,3.00
2022-10-29T12:40:32.656Z,5.03
2022-10-29T12:45:53.044Z,6.03
2022-10-29T12:51:09.722Z,4.70
2022-10-29T12:56:10.746Z,5.72
2022-10-29T13:07:23.786Z,6.05
2022-10-29T13:13:01.504Z,5.00
2022-10-29T13:18:19.397Z,8.07
2022-10-29T13:24:02.847Z,10.43
2022-10-29T13:29:02.007Z,11.25
2022-10-29T13:34:00.824Z,7.10
2022-10-29T13:39:08.254Z,6.22
2022-10-29T13:44:12.705Z,10.00
2022-10-29T13:49:16.933Z,9.52
2022-10-29T13:59:36.872Z,8.55
2022-10-29T14:04:40.386Z,7.43
2022-10-29T14:09:45.551Z,6.55
2022-10-29T14:14:52.989Z,5.82
2022-10-29T14:19:53.585Z,6.65
2022-10-29T14:24:53.862Z,10.38
2022-10-29T14:29:54.702Z,8.30
2022-10-29T14:34:54.991Z,9.35
2022-10-29T14:39:59.480Z,7.68
2022-10-29T14:45:01.291Z,11.32
2022-10-29T14:50:02.979Z,9.40
2022-10-29T14:55:07.954Z,12.85
2022-10-29T15:00:08.441Z,14.43
2022-10-29T15:05:24.660Z,14.88
2022-10-29T15:10:26.574Z,15.35
2022-10-29T15:15:28.807Z,14.45
2022-10-29T15:20:32.760Z,14.60
2022-10-29T15:25:36.790Z,16.42
2022-10-29T15:30:37.435Z,16.52
2022-10-29T15:35:37.089Z,18.67
2022-10-29T15:40:37.491Z,18.17
2022-10-29T15:45:36.644Z,14.65
2022-10-29T15:50:42.926Z,13.05
2022-10-29T15:55:43.368Z,16.63
2022-10-29T16:00:42.182Z,26.42
2022-10-29T16:05:41.553Z,15.20
2022-10-29T16:10:40.711Z,20.60
2022-10-29T16:15:44.085Z,18.48
2022-10-29T16:20:43.498Z,30.48
2022-10-29T16:25:43.247Z,26.23
2022-10-29T16:30:44.296Z,25.83
2022-10-29T16:35:43.325Z,33.53
2022-10-29T16:40:46.765Z,32.40
2022-10-29T16:45:50.428Z,30.25
2022-10-29T16:50:55.184Z,29.80
2022-10-29T16:56:03.050Z,29.17
2022-10-29T17:01:12.825Z,28.58
2022-10-29T17:06:12.339Z,28.58
2022-10-29T17:11:11.108Z,78.90
2022-10-29T17:16:14.836Z,59.38
2022-10-29T17:21:13.719Z,40.13
2022-10-29T17:26:12.618Z,39.55
2022-10-29T17:31:12.979Z,30.55
2022-10-29T17:36:14.130Z,27.98
2022-10-29T17:41:21.311Z,25.15
2022-10-29T17:46:21.931Z,31.25
2022-10-29T17:51:21.022Z,30.17
2022-10-29T17:56:20.120Z,35.28
2022-10-29T18:01:19.399Z,28.38
2022-10-29T18:06:20.462Z,30.92
2022-10-29T18:11:21.545Z,20.85
2022-10-29T18:16:22.780Z,23.50
2022-10-29T18:21:25.080Z,23.58
2022-10-29T18:26:27.554Z,47.53
2022-10-29T18:36:27.876Z,44.83
2022-10-29T18:41:27.463Z,34.83
2022-10-29T18:46:26.729Z,32.63
2022-10-29T18:51:36.676Z,47.60
2022-10-29T18:56:38.155Z,23.77
2022-10-29T19:01:38.534Z,19.50
2022-10-29T19:06:40.588Z,18.80
2022-10-29T19:11:39.744Z,20.90
2022-10-29T19:16:44.036Z,16.80
2022-10-29T19:21:44.729Z,18.17
2022-10-29T19:26:48.731Z,22.38
2022-10-29T19:31:54.836Z,19.67
2022-10-29T19:36:57.628Z,21.13
2022-10-29T19:42:02.764Z,23.15
2022-10-29T19:47:01.930Z,20.00
2022-10-29T19:52:03.219Z,18.70
2022-10-29T19:57:08.471Z,20.52
2022-10-29T20:02:07.296Z,18.45
2022-10-29T20:07:12.367Z,15.43
2022-10-29T20:12:11.983Z,14.40
2022-10-29T20:17:13.614Z,15.23
2022-10-29T20:22:15.244Z,15.02
2022-10-29T20:27:17.284Z,16.00
2022-10-29T20:32:19.981Z,14.50
2022-10-29T20:37:20.431Z,15.82
2022-10-29T20:42:19.338Z,15.05
2022-10-29T20:47:18.317Z,12.90
2022-10-29T20:52:17.155Z,15.38
2022-10-29T20:57:17.495Z,18.65
2022-10-29T21:02:16.351Z,17.35
2022-10-29T21:07:18.992Z,13.80
2022-10-29T21:12:19.347Z,15.48
2022-10-29T21:17:18.178Z,15.80
2022-10-29T21:22:19.231Z,10.95
2022-10-29T21:27:19.591Z,11.23
2022-10-29T21:32:18.517Z,13.75
2022-10-29T21:37:17.727Z,11.80
2022-10-29T21:42:31.383Z,10.18
2022-10-29T21:47:30.235Z,10.07
2022-10-29T21:52:29.170Z,10.13
2022-10-29T21:57:29.384Z,11.60
2022-10-29T22:02:29.443Z,12.70
2022-10-29T22:07:28.367Z,12.30
2022-10-29T22:12:27.327Z,11.30
2022-10-29T22:17:28.672Z,11.85
2022-10-29T22:22:27.602Z,11.60
2022-10-29T22:27:26.497Z,9.90
2022-10-29T22:32:25.323Z,10.43
2022-10-29T22:37:25.742Z,12.35
2022-10-29T22:42:24.637Z,14.23
2022-10-29T22:47:23.491Z,10.27
2022-10-29T22:52:22.700Z,13.07
2022-10-29T22:57:23.103Z,10.40
2022-10-29T23:02:22.073Z,11.20
2022-10-29T23:07:21.277Z,11.35
2022-10-29T23:12:20.287Z,10.52
2022-10-29T23:17:20.667Z,10.38
2022-10-29T23:22:20.972Z,8.80
2022-10-29T23:27:22.235Z,12.60
2022-10-29T23:32:23.385Z,8.02
2022-10-29T23:37:22.234Z,7.80
2022-10-29T23:42:21.188Z,10.63
2022-10-29T23:47:20.068Z,7.43
2022-10-29T23:52:20.429Z,10.57
2022-10-29T23:57:19.394Z,9.27
